Time;durP1;ratioP1;P1;durP2;ratioP2;P2;SDS_P1;SDS_P2;PMS_P1;PMS_P2;Temp;Humidity;BMP_temperature;BMP_pressure;BME280_temperature;BME280_humidity;BME280_pressure;Samples;Min_cycle;Max_cycle;Signal;HPM_P1;HPM_P2
2023/06/29 00:00:30;;;;;;;7.05;3.85;;;19.70;52.40;;;21.47;41.86;97715.63;5031735;28;20392;-43
2023/06/29 00:02:57;;;;;;;6.43;3.58;;;19.70;52.40;;;21.44;41.64;97722.31;5031739;28;20158;-45
2023/06/29 00:05:25;;;;;;;4.88;3.35;;;19.60;52.40;;;21.41;41.87;97720.03;5031516;28;20045;-42
2023/06/29 00:07:52;;;;;;;6.85;5.53;;;19.60;52.40;;;21.38;41.92;97713.22;5031666;28;20405;-42
2023/06/29 00:10:20;;;;;;;5.15;3.05;;;19.60;52.50;;;21.36;41.97;97718.00;5031342;28;20420;-44
2023/06/29 00:12:48;;;;;;;4.72;3.05;;;19.50;52.40;;;21.35;41.42;97712.84;5031984;28;20060;-47
2023/06/29 00:15:15;;;;;;;3.85;3.10;;;19.60;52.30;;;21.33;41.78;97712.25;5031182;28;20048;-43
2023/06/29 00:17:47;;;;;;;4.43;2.83;;;19.60;52.50;;;21.32;41.77;97711.38;5023530;28;20042;-46
2023/06/29 00:20:14;;;;;;;4.63;3.33;;;19.50;52.40;;;21.30;42.06;97716.22;5031712;28;20056;-44
2023/06/29 00:22:47;;;;;;;5.15;3.55;;;19.50;52.60;;;21.29;42.00;97709.16;5030331;28;20045;-43
2023/06/29 00:25:17;;;;;;;7.00;3.47;;;19.50;52.50;;;21.27;41.60;97702.28;5031500;28;20525;-43
2023/06/29 00:27:44;;;;;;;5.53;3.85;;;19.50;52.60;;;21.27;41.88;97713.13;5023295;28;20045;-43
2023/06/29 00:30:13;;;;;;;6.45;3.53;;;19.50;52.70;;;21.25;42.17;97707.97;5031211;28;20052;-43
2023/06/29 00:32:40;;;;;;;5.93;3.80;;;19.40;52.70;;;21.22;42.15;97698.41;5046674;28;20285;-47
2023/06/29 00:35:08;;;;;;;4.28;3.30;;;19.40;52.70;;;21.21;42.32;97709.47;5038113;28;20053;-46
2023/06/29 00:37:36;;;;;;;7.18;3.42;;;19.40;52.70;;;21.19;41.90;97693.47;5030807;28;20048;-43
2023/06/29 00:40:05;;;;;;;5.65;3.90;;;19.40;52.70;;;21.14;42.57;97704.13;5029900;28;20045;-43
2023/06/29 00:42:32;;;;;;;7.63;3.78;;;19.30;53.30;;;21.13;42.46;97696.22;5031087;28;20052;-46
2023/06/29 00:45:00;;;;;;;4.22;3.83;;;19.30;53.10;;;21.10;42.52;97694.00;5045156;28;20049;-41
2023/06/29 00:47:28;;;;;;;5.85;3.70;;;19.30;53.30;;;21.09;42.33;97687.75;5036543;28;20056;-45
2023/06/29 00:49:56;;;;;;;3.92;3.35;;;19.30;53.40;;;21.08;42.33;97688.81;5031434;28;20041;-47
2023/06/29 00:52:23;;;;;;;5.50;4.60;;;19.30;53.60;;;21.05;42.42;97683.84;5029879;28;20045;-45
2023/06/29 00:54:55;;;;;;;5.43;3.95;;;19.20;53.60;;;21.03;42.75;97688.66;5014059;28;20041;-43
2023/06/29 00:57:24;;;;;;;4.65;3.22;;;19.20;53.90;;;21.00;42.80;97686.41;5029367;28;20045;-43
2023/06/29 00:59:51;;;;;;;8.35;3.67;;;19.20;53.60;;;20.96;42.91;97682.50;5045596;28;20128;-42
2023/06/29 01:02:19;;;;;;;4.68;3.70;;;19.20;53.70;;;20.94;42.74;97680.03;5029730;28;20055;-43
2023/06/29 01:04:49;;;;;;;4.82;3.58;;;19.20;54.10;;;20.93;42.67;97677.53;5021988;28;20050;-44
2023/06/29 01:07:52;;;;;;;4.38;3.65;;;19.10;54.10;;;20.90;42.81;97684.25;5046126;28;20057;-47
2023/06/29 01:10:27;;;;;;;4.95;3.30;;;19.10;54.70;;;20.88;42.82;97670.13;5025904;28;20068;-44
2023/06/29 01:12:56;;;;;;;7.00;3.70;;;19.10;54.50;;;20.85;42.87;97681.38;5022471;28;20050;-44
2023/06/29 01:15:24;;;;;;;4.85;3.40;;;19.00;54.40;;;20.82;43.18;97676.41;5012984;28;20053;-44
2023/06/29 01:17:55;;;;;;;5.68;3.90;;;19.00;54.60;;;20.79;43.42;97674.19;5029316;28;20038;-43
2023/06/29 01:20:25;;;;;;;4.63;3.50;;;19.00;54.80;;;20.77;43.33;97668.16;5029062;28;20505;-41
2023/06/29 01:23:03;;;;;;;4.50;3.78;;;18.90;55.00;;;20.76;43.49;97667.34;5029309;28;20046;-45
2023/06/29 01:25:32;;;;;;;4.75;3.97;;;18.90;55.60;;;20.73;43.52;97667.78;5029226;28;20049;-41
2023/06/29 01:28:09;;;;;;;6.45;4.15;;;18.90;55.30;;;20.71;43.77;97669.06;5012970;28;20045;-46
2023/06/29 01:30:49;;;;;;;4.78;3.22;;;18.80;55.90;;;20.69;43.79;97666.59;5012646;28;20053;-44
2023/06/29 01:33:21;;;;;;;5.18;4.07;;;18.80;55.50;;;20.68;43.77;97667.63;5029445;28;20428;-46
2023/06/29 01:36:06;;;;;;;5.35;3.20;;;18.80;55.60;;;20.67;43.91;97667.88;5029517;28;20034;-42
2023/06/29 01:38:53;;;;;;;5.07;3.15;;;18.80;55.90;;;20.63;43.80;97664.78;5029078;28;20037;-46
2023/06/29 01:41:23;;;;;;;5.68;3.28;;;18.80;56.70;;;20.58;43.83;97667.31;5029560;28;20068;-42
2023/06/29 01:43:52;;;;;;;5.32;3.42;;;18.70;56.10;;;20.54;44.09;97660.69;5005744;28;20041;-43
2023/06/29 01:46:20;;;;;;;3.90;3.17;;;18.60;56.40;;;20.51;44.01;97659.28;5030261;28;20049;-45
2023/06/29 01:48:50;;;;;;;3.75;3.30;;;18.60;56.10;;;20.48;44.25;97658.88;5012642;28;20057;-42
2023/06/29 01:51:18;;;;;;;5.10;3.97;;;18.60;56.50;;;20.44;44.34;97661.22;5033317;28;20053;-46
2023/06/29 01:53:45;;;;;;;4.47;3.47;;;18.60;56.60;;;20.40;44.48;97654.59;5016377;28;20239;-44
2023/06/29 01:56:14;;;;;;;5.15;4.10;;;18.50;56.90;;;20.38;44.59;97645.88;5032793;28;20045;-44
2023/06/29 01:58:42;;;;;;;4.82;3.97;;;18.50;57.00;;;20.35;44.75;97644.44;5032161;28;20042;-45
2023/06/29 02:01:09;;;;;;;10.10;3.85;;;18.50;57.00;;;20.33;44.36;97651.94;5034594;28;20056;-45
2023/06/29 02:03:37;;;;;;;4.40;3.60;;;18.50;56.70;;;20.32;44.50;97649.50;5034211;28;20045;-44
2023/06/29 02:06:07;;;;;;;5.15;3.78;;;18.50;56.90;;;20.29;44.78;97644.53;5032445;28;20405;-45
2023/06/29 02:08:34;;;;;;;6.45;3.60;;;18.50;57.00;;;20.24;44.73;97646.03;5032425;28;20076;-44
2023/06/29 02:11:02;;;;;;;4.15;3.75;;;18.40;57.00;;;20.23;44.80;97646.25;5034463;28;20052;-45
2023/06/29 02:13:30;;;;;;;5.63;4.60;;;18.40;57.10;;;20.22;44.97;97644.56;5033162;28;20430;-42
2023/06/29 02:15:58;;;;;;;6.25;3.63;;;18.40;57.20;;;20.21;45.01;97638.34;5032431;28;20129;-46
2023/06/29 02:18:25;;;;;;;4.13;3.50;;;18.40;56.90;;;20.22;44.98;97634.59;5032091;28;20424;-45
2023/06/29 02:20:53;;;;;;;5.95;3.72;;;18.50;57.10;;;20.24;44.82;97628.97;5033841;28;20492;-43
2023/06/29 02:23:23;;;;;;;9.13;3.78;;;18.50;56.90;;;20.25;44.90;97631.44;5032704;28;20599;-44
2023/06/29 02:25:51;;;;;;;5.07;4.07;;;18.50;56.90;;;20.25;44.86;97633.31;5031857;28;20038;-43
2023/06/29 02:28:19;;;;;;;4.72;3.42;;;18.50;57.00;;;20.23;44.77;97633.53;5031631;28;20041;-43
2023/06/29 02:30:46;;;;;;;5.00;3.80;;;18.50;56.90;;;20.23;44.72;97630.84;5033360;28;20489;-42
2023/06/29 02:33:14;;;;;;;7.55;3.92;;;18.50;57.00;;;20.23;44.97;97628.13;5032696;28;20045;-43
2023/06/29 02:35:42;;;;;;;3.83;3.28;;;18.50;56.80;;;20.21;45.08;97632.94;5031938;28;20046;-44
2023/06/29 02:38:10;;;;;;;5.78;3.53;;;18.50;57.00;;;20.20;45.30;97628.59;5016008;28;20045;-41
2023/06/29 02:40:38;;;;;;;5.18;4.32;;;18.50;57.20;;;20.18;45.09;97632.56;5031625;28;20068;-42
2023/06/29 02:43:06;;;;;;;7.63;3.72;;;18.40;57.20;;;20.16;45.00;97627.41;5032253;28;20424;-42
2023/06/29 02:45:33;;;;;;;6.70;3.97;;;18.40;57.80;;;20.12;45.03;97628.88;5033796;28;20046;-46
2023/06/29 02:48:01;;;;;;;5.63;4.40;;;18.30;57.30;;;20.09;45.18;97637.44;5015585;28;20056;-44
2023/06/29 02:50:29;;;;;;;4.20;3.80;;;18.30;57.60;;;20.06;45.39;97630.59;5032983;28;20053;-41
2023/06/29 02:52:57;;;;;;;4.20;3.80;;;18.20;57.50;;;20.02;45.16;97623.97;5024019;28;20412;-46
2023/06/29 02:55:25;;;;;;;4.50;3.95;;;18.20;57.50;;;19.98;45.11;97632.75;5032282;28;20053;-44
2023/06/29 02:57:52;;;;;;;6.88;4.30;;;18.10;57.70;;;19.96;45.22;97624.03;5032845;28;20046;-41
2023/06/29 03:00:21;;;;;;;6.35;4.13;;;18.10;57.90;;;19.94;45.47;97626.97;5032103;28;20477;-41
2023/06/29 03:02:48;;;;;;;6.10;3.88;;;18.10;58.10;;;19.92;45.47;97622.84;5033413;28;20056;-44
2023/06/29 03:05:16;;;;;;;5.85;3.88;;;18.10;58.30;;;19.90;45.45;97627.63;5031972;28;20042;-42
2023/06/29 03:07:44;;;;;;;5.97;3.90;;;18.00;58.40;;;19.85;45.59;97614.78;5033187;28;20068;-44
2023/06/29 03:10:11;;;;;;;5.40;4.18;;;18.00;59.20;;;19.81;45.69;97614.41;5031117;28;20057;-44
2023/06/29 03:12:41;;;;;;;5.95;4.28;;;17.90;58.60;;;19.79;45.91;97616.50;5032733;28;20041;-44
2023/06/29 03:15:09;;;;;;;5.30;4.40;;;17.90;58.80;;;19.76;45.94;97622.34;5032799;28;20501;-43
2023/06/29 03:17:37;;;;;;;5.22;4.70;;;17.90;58.80;;;19.73;46.06;97611.97;5032607;28;20048;-47
2023/06/29 03:20:06;;;;;;;5.35;3.88;;;17.80;59.10;;;19.71;45.89;97624.03;5030703;28;20046;-44
2023/06/29 03:22:34;;;;;;;6.47;4.15;;;17.80;58.90;;;19.68;46.12;97617.19;5032457;28;20050;-44
2023/06/29 03:25:03;;;;;;;6.40;3.90;;;17.80;59.30;;;19.66;46.19;97625.50;5031756;28;20038;-47
2023/06/29 03:27:31;;;;;;;5.18;4.38;;;17.80;59.30;;;19.65;46.11;97620.31;5032341;28;20049;-43
2023/06/29 03:29:59;;;;;;;6.53;3.97;;;17.80;59.30;;;19.64;46.31;97624.09;5032200;28;20065;-46
2023/06/29 03:32:27;;;;;;;4.38;3.78;;;17.90;59.40;;;19.63;46.30;97617.84;5032554;28;20071;-44
2023/06/29 03:34:54;;;;;;;5.35;4.07;;;17.80;59.30;;;19.62;46.38;97620.78;5032349;28;20421;-41
2023/06/29 03:37:22;;;;;;;4.72;3.60;;;17.80;59.50;;;19.61;46.45;97613.72;5032691;28;20046;-44
2023/06/29 03:39:49;;;;;;;4.65;3.88;;;17.80;59.70;;;19.60;46.47;97620.16;5031974;28;20060;-45
2023/06/29 03:42:17;;;;;;;4.53;4.13;;;17.70;60.00;;;19.62;46.40;97615.38;5032294;28;20416;-48
2023/06/29 03:44:45;;;;;;;8.55;4.35;;;17.80;59.70;;;19.61;46.52;97616.41;5032187;28;20612;-45
2023/06/29 03:47:13;;;;;;;6.25;4.10;;;17.80;59.80;;;19.59;46.66;97613.91;5029650;28;20065;-43
2023/06/29 03:49:40;;;;;;;6.35;4.75;;;17.80;60.10;;;19.58;46.64;97606.88;5030727;28;20053;-44
2023/06/29 03:52:08;;;;;;;4.43;3.92;;;17.80;60.10;;;19.59;46.73;97608.53;5031957;28;20049;-44
2023/06/29 03:54:35;;;;;;;6.25;4.13;;;17.70;60.00;;;19.59;46.78;97602.31;5032241;28;20053;-44
2023/06/29 03:57:03;;;;;;;5.70;4.25;;;17.70;60.20;;;19.58;46.84;97608.75;5023994;28;20049;-43
2023/06/29 03:59:31;;;;;;;4.57;4.10;;;17.70;60.20;;;19.57;46.74;97607.09;5031603;28;20527;-44
2023/06/29 04:01:58;;;;;;;4.95;4.45;;;17.80;59.90;;;19.59;46.85;97600.41;5032049;28;20595;-42
2023/06/29 04:04:26;;;;;;;5.47;3.83;;;17.80;59.90;;;19.61;46.61;97592.94;5031849;28;20050;-45
2023/06/29 04:06:54;;;;;;;7.60;4.55;;;17.90;59.60;;;19.63;46.74;97603.50;5031444;28;20045;-42
2023/06/29 04:09:21;;;;;;;5.65;4.07;;;17.90;59.50;;;19.64;46.64;97597.91;5031188;28;20053;-41
2023/06/29 04:11:49;;;;;;;4.88;4.43;;;17.90;59.60;;;19.64;46.86;97599.78;5029750;28;20061;-41
2023/06/29 04:14:16;;;;;;;5.65;4.40;;;17.90;59.70;;;19.66;46.77;97594.97;5031792;28;20060;-42
2023/06/29 04:16:44;;;;;;;6.32;4.70;;;17.90;59.70;;;19.67;46.88;97596.63;5031312;28;20424;-43
2023/06/29 04:19:11;;;;;;;5.95;4.15;;;17.90;59.60;;;19.68;46.86;97601.00;5030938;28;20412;-43
2023/06/29 04:21:42;;;;;;;6.53;4.45;;;18.00;59.60;;;19.68;46.86;97601.81;5032036;28;20056;-42
2023/06/29 04:24:10;;;;;;;9.18;5.55;;;18.00;59.70;;;19.67;47.19;97604.72;5031461;28;20045;-44
2023/06/29 04:26:38;;;;;;;7.03;4.30;;;18.00;59.90;;;19.67;46.98;97600.13;5031355;28;20394;-46
2023/06/29 04:29:07;;;;;;;6.93;4.30;;;17.90;60.00;;;19.72;46.90;97602.22;5022916;28;20424;-41
2023/06/29 04:31:34;;;;;;;6.97;4.28;;;18.00;59.80;;;19.76;46.85;97605.31;5031246;28;20045;-46
2023/06/29 04:34:02;;;;;;;5.95;4.32;;;18.10;59.70;;;19.78;46.91;97600.53;5031704;28;20042;-44
2023/06/29 04:36:30;;;;;;;6.65;5.00;;;18.10;59.70;;;19.81;46.70;97600.06;5031193;28;20409;-41
2023/06/29 04:38:58;;;;;;;7.80;3.95;;;18.20;59.30;;;19.84;46.93;97602.34;5030754;28;20444;-44
2023/06/29 04:41:32;;;;;;;6.30;4.07;;;18.30;59.40;;;19.88;47.24;97598.13;5031527;28;20524;-45
2023/06/29 04:43:59;;;;;;;;;;;18.30;59.40;;;19.94;46.63;97599.94;5031719;28;20440;-41
2023/06/29 04:46:33;;;;;;;6.25;5.30;;;18.40;60.20;;;20.02;46.81;97596.13;5029750;28;20373;-44
2023/06/29 04:49:05;;;;;;;12.63;5.97;;;18.40;59.30;;;20.01;46.78;97595.31;5029766;28;20037;-43
2023/06/29 04:51:36;;;;;;;6.13;5.53;;;18.50;59.20;;;20.03;47.16;97597.81;5030067;28;20060;-44
2023/06/29 04:54:07;;;;;;;9.25;6.25;;;18.50;59.40;;;20.05;46.93;97593.00;5030909;28;20045;-46
2023/06/29 04:56:35;;;;;;;6.18;4.90;;;18.50;59.30;;;20.06;46.89;97598.19;5031125;28;20056;-44
2023/06/29 04:59:03;;;;;;;7.43;5.90;;;18.50;59.20;;;20.08;46.99;97600.63;5030387;28;20041;-43
2023/06/29 05:01:30;;;;;;;7.43;5.68;;;18.50;59.20;;;20.10;46.93;97595.03;5030955;28;20045;-44
2023/06/29 05:03:58;;;;;;;13.55;6.25;;;18.50;59.50;;;20.10;47.00;97590.44;5030870;28;20129;-42
2023/06/29 05:06:29;;;;;;;9.70;5.88;;;18.50;59.40;;;20.16;47.08;97594.13;5030693;28;20507;-46
2023/06/29 05:08:57;;;;;;;6.28;4.80;;;18.60;59.20;;;20.18;47.15;97595.56;5030532;28;20053;-46
2023/06/29 05:11:24;;;;;;;5.95;5.22;;;18.70;59.40;;;20.24;47.31;97596.56;5030973;28;20038;-47
2023/06/29 05:13:52;;;;;;;8.70;5.22;;;18.80;59.40;;;20.29;48.41;97593.16;5030657;28;20056;-43
2023/06/29 05:16:20;;;;;;;7.00;5.82;;;18.90;60.30;;;20.34;47.38;97596.03;5030982;28;20050;-43
2023/06/29 05:18:48;;;;;;;7.60;6.00;;;18.90;59.40;;;20.37;47.55;97601.78;5030157;28;20045;-42
2023/06/29 05:21:15;;;;;;;8.65;6.50;;;19.00;59.60;;;20.45;47.59;97595.25;5030660;28;20098;-43
2023/06/29 05:23:43;;;;;;;9.10;5.88;;;19.00;59.60;;;20.47;47.68;97593.16;5030542;28;20049;-41
2023/06/29 05:26:10;;;;;;;9.07;6.75;;;19.00;59.50;;;20.51;47.67;97597.06;5026949;28;20309;-46
2023/06/29 05:28:38;;;;;;;7.10;6.10;;;19.10;59.60;;;20.55;47.48;97597.44;5034518;28;20045;-44
2023/06/29 05:31:09;;;;;;;7.25;6.55;;;19.10;59.70;;;20.58;47.46;97595.09;5034355;28;20080;-42
2023/06/29 05:33:37;;;;;;;10.52;5.13;;;19.10;60.00;;;20.61;46.62;97593.88;5034625;28;20404;-42
2023/06/29 05:36:04;;;;;;;6.72;4.38;;;19.10;58.80;;;20.64;46.28;97590.69;5034578;28;20504;-41
2023/06/29 05:38:32;;;;;;;6.60;4.43;;;19.20;58.50;;;20.68;46.47;97588.38;5032766;28;20053;-44
2023/06/29 05:41:00;;;;;;;10.85;6.40;;;19.20;58.10;;;20.72;46.16;97592.28;5034493;28;20045;-45
2023/06/29 05:43:29;;;;;;;7.55;4.82;;;19.30;57.90;;;20.77;46.41;97597.84;5036449;28;20404;-45
2023/06/29 05:45:57;;;;;;;5.35;4.85;;;19.30;57.70;;;20.81;46.64;97599.03;5034468;28;20417;-47
2023/06/29 05:48:27;;;;;;;5.00;4.15;;;19.40;57.80;;;20.85;45.96;97592.09;5033807;28;20046;-46
2023/06/29 05:50:55;;;;;;;5.47;3.78;;;19.40;57.40;;;20.91;45.57;97593.06;5033498;28;20045;-43
2023/06/29 05:53:22;;;;;;;4.20;3.80;;;19.50;56.60;;;20.95;45.68;97592.38;5034693;28;20064;-45
2023/06/29 05:55:50;;;;;;;7.78;4.55;;;19.50;56.60;;;20.99;45.38;97588.16;5034046;28;20049;-42
2023/06/29 05:58:17;;;;;;;6.70;4.00;;;19.50;56.20;;;21.02;45.22;97586.88;5034152;28;20052;-41
2023/06/29 06:00:45;;;;;;;4.72;4.30;;;19.60;56.10;;;21.03;45.38;97581.25;5033987;28;20523;-41
2023/06/29 06:03:13;;;;;;;5.72;4.30;;;19.70;55.80;;;21.08;45.89;97583.25;5032950;28;20044;-41
2023/06/29 06:05:40;;;;;;;5.97;4.38;;;19.80;56.10;;;21.12;45.33;97581.72;5032962;28;20038;-40
2023/06/29 06:08:08;;;;;;;6.05;4.25;;;19.80;55.90;;;21.18;45.33;97580.81;5033810;28;20883;-43
2023/06/29 06:10:36;;;;;;;6.78;4.03;;;19.90;55.60;;;21.24;45.07;97582.59;5033690;28;20053;-45
2023/06/29 06:13:04;;;;;;;5.70;4.53;;;19.90;55.40;;;21.30;44.69;97582.72;5033461;28;20120;-41
2023/06/29 06:15:32;;;;;;;5.50;3.83;;;20.00;54.80;;;21.36;44.71;97581.78;5033894;28;20049;-42
2023/06/29 06:17:59;;;;;;;6.47;4.47;;;20.00;54.80;;;21.41;44.46;97582.75;5028536;28;20046;-41
2023/06/29 06:20:27;;;;;;;5.63;3.75;;;20.10;54.80;;;21.47;44.55;97577.50;5033280;28;20048;-42
2023/06/29 06:22:54;;;;;;;8.45;3.70;;;20.20;54.50;;;21.52;44.47;97591.16;5034226;28;20049;-42
2023/06/29 06:25:22;;;;;;;5.88;4.35;;;20.30;54.20;;;21.60;44.35;97586.25;5033584;28;20408;-43
2023/06/29 06:27:49;;;;;;;5.78;4.65;;;20.40;54.00;;;21.70;44.13;97584.84;5033282;28;20042;-48
2023/06/29 06:30:17;;;;;;;5.20;3.95;;;20.50;53.80;;;21.76;43.33;97582.00;5025312;28;20042;-45
2023/06/29 06:32:45;;;;;;;6.75;3.75;;;20.50;53.10;;;21.84;43.69;97583.53;5033335;28;20041;-45
2023/06/29 06:35:13;;;;;;;6.30;3.40;;;20.60;52.90;;;21.90;43.48;97581.78;5032478;28;20050;-45
2023/06/29 06:37:41;;;;;;;5.00;3.45;;;20.70;52.70;;;21.97;42.90;97585.22;5033148;28;20409;-42
2023/06/29 06:40:09;;;;;;;6.32;3.83;;;20.80;52.20;;;22.03;42.93;97581.53;5031750;28;20049;-47
2023/06/29 06:42:36;;;;;;;4.25;3.58;;;20.90;52.20;;;22.08;43.48;97578.97;5033436;28;20038;-43
2023/06/29 06:45:06;;;;;;;4.18;3.40;;;20.80;52.30;;;22.12;42.89;97580.13;5032991;28;20044;-46
2023/06/29 06:47:35;;;;;;;6.93;4.72;;;20.90;52.00;;;22.17;43.12;97574.00;5029957;28;20057;-43
2023/06/29 06:50:05;;;;;;;5.65;4.10;;;21.00;52.10;;;22.22;43.03;97571.41;5032528;28;20427;-44
2023/06/29 06:52:32;;;;;;;4.68;3.33;;;21.10;52.10;;;22.29;42.90;97568.59;5032104;28;20033;-45
2023/06/29 06:55:01;;;;;;;5.95;3.67;;;21.10;51.90;;;22.35;43.07;97567.63;5033127;28;20041;-47
2023/06/29 06:57:28;;;;;;;5.97;4.05;;;21.10;51.90;;;22.40;42.62;97567.75;5032690;28;20117;-46
2023/06/29 06:59:56;;;;;;;4.97;3.70;;;21.20;51.70;;;22.45;42.76;97562.44;5032700;28;20041;-44
2023/06/29 07:02:23;;;;;;;4.22;3.60;;;21.30;51.50;;;22.51;42.54;97564.19;5033197;28;20045;-46
2023/06/29 07:04:51;;;;;;;7.88;3.97;;;21.40;51.20;;;22.55;41.97;97559.09;5033046;28;20041;-47
2023/06/29 07:07:19;;;;;;;5.15;3.35;;;21.40;50.40;;;22.57;41.90;97555.09;5032451;28;20492;-45
2023/06/29 07:09:47;;;;;;;7.13;4.20;;;21.50;50.10;;;22.64;41.67;97554.09;5032727;28;20109;-47
2023/06/29 07:12:15;;;;;;;5.20;3.75;;;21.60;49.70;;;22.70;41.52;97547.72;5032807;28;20050;-48
2023/06/29 07:14:42;;;;;;;5.05;3.80;;;21.60;49.30;;;22.77;41.66;97554.66;5032976;28;20060;-45
2023/06/29 07:17:10;;;;;;;5.78;3.85;;;21.70;50.40;;;22.85;41.55;97558.88;5032543;28;20420;-46
2023/06/29 07:19:38;;;;;;;5.95;3.83;;;21.80;49.70;;;22.89;41.81;97557.31;5032047;28;20042;-47
2023/06/29 07:22:08;;;;;;;5.38;3.90;;;21.80;49.70;;;22.97;41.85;97565.09;5032283;28;20054;-49
2023/06/29 07:24:38;;;;;;;5.63;4.18;;;21.90;50.00;;;23.04;41.53;97562.25;5032600;28;20037;-48
2023/06/29 07:27:06;;;;;;;5.70;4.38;;;22.00;49.70;;;23.10;41.55;97560.44;5032307;28;20362;-46
2023/06/29 07:29:34;;;;;;;7.30;3.42;;;22.10;49.40;;;23.15;41.29;97564.09;5032009;28;20045;-54
2023/06/29 07:32:01;;;;;;;4.72;4.22;;;22.10;49.30;;;23.22;40.95;97554.94;5032205;28;20057;-53
2023/06/29 07:34:30;;;;;;;4.93;4.35;;;22.10;49.00;;;23.26;40.95;97550.69;5032234;28;20045;-52
2023/06/29 07:36:58;;;;;;;6.85;4.57;;;22.20;49.10;;;23.33;41.05;97554.88;5031619;28;20041;-52
2023/06/29 07:39:27;;;;;;;5.07;3.67;;;22.30;48.90;;;23.44;40.44;97557.75;5031947;28;20037;-54
2023/06/29 07:41:54;;;;;;;6.53;4.30;;;22.40;48.50;;;23.52;40.14;97558.19;5031041;28;20041;-53
2023/06/29 07:44:22;;;;;;;6.05;3.58;;;22.60;47.70;;;23.61;40.00;97549.63;5030930;28;20053;-54
2023/06/29 07:46:50;;;;;;;4.88;4.00;;;22.60;47.20;;;23.69;39.62;97544.63;5031274;28;20041;-54
2023/06/29 07:49:17;;;;;;;4.82;3.47;;;22.70;46.60;;;23.76;39.71;97542.53;5031243;28;20050;-54
2023/06/29 07:51:45;;;;;;;5.88;3.70;;;22.80;46.80;;;23.83;39.40;97533.44;5032017;28;20053;-53
2023/06/29 07:54:13;;;;;;;5.93;3.63;;;22.80;46.50;;;23.91;39.38;97538.44;5031933;28;20053;-55
2023/06/29 07:56:40;;;;;;;5.15;3.83;;;22.90;46.30;;;23.96;39.22;97539.34;5032010;28;20489;-52
2023/06/29 07:59:11;;;;;;;3.83;3.30;;;23.00;46.20;;;24.04;38.76;97539.97;5031432;28;20045;-55
2023/06/29 08:01:38;;;;;;;5.00;3.42;;;23.00;45.80;;;24.10;39.12;97536.25;5031972;28;20046;-54
2023/06/29 08:04:07;;;;;;;7.13;3.83;;;23.10;46.00;;;24.19;39.18;97542.91;5031817;28;20045;-55
2023/06/29 08:06:35;;;;;;;5.00;4.22;;;23.20;46.10;;;24.28;38.92;97537.84;5031747;28;20041;-55
2023/06/29 08:09:06;;;;;;;5.70;3.83;;;23.30;46.00;;;24.37;39.22;97542.59;5031155;28;20045;-56
2023/06/29 08:11:33;;;;;;;5.85;3.80;;;23.40;46.00;;;24.43;38.31;97535.34;5031807;28;20041;-55
2023/06/29 08:14:01;;;;;;;6.25;3.50;;;23.50;45.20;;;24.45;38.37;97541.34;5030066;28;20458;-52
2023/06/29 08:16:29;;;;;;;4.70;3.72;;;23.50;45.20;;;24.46;38.42;97548.41;5031757;28;20045;-55
2023/06/29 08:18:58;;;;;;;4.30;3.30;;;23.40;45.30;;;24.50;38.46;97541.38;5031115;28;20053;-54
2023/06/29 08:21:26;;;;;;;6.85;4.28;;;23.50;45.30;;;24.53;38.04;97534.66;5031123;28;20048;-56
2023/06/29 08:23:53;;;;;;;5.00;3.53;;;23.50;44.80;;;24.55;38.08;97533.31;5031628;28;20038;-52
2023/06/29 08:26:22;;;;;;;6.95;3.42;;;23.50;44.70;;;24.58;37.75;97521.09;5031385;28;20049;-56
2023/06/29 08:28:49;;;;;;;6.75;3.22;;;23.60;44.50;;;24.65;37.63;97521.72;5030842;28;20056;-52
2023/06/29 08:31:19;;;;;;;4.10;3.45;;;23.70;44.20;;;24.74;37.34;97528.38;5031443;28;20505;-53
2023/06/29 08:33:48;;;;;;;4.75;3.67;;;23.80;43.70;;;24.80;37.33;97525.72;5031451;28;20092;-54
2023/06/29 08:36:16;;;;;;;6.57;3.70;;;23.80;43.50;;;24.85;37.07;97523.84;5031337;28;20045;-52
2023/06/29 08:38:46;;;;;;;7.82;3.10;;;23.90;43.50;;;24.92;36.88;97520.94;5029714;28;20052;-56
2023/06/29 08:41:14;;;;;;;3.47;3.10;;;24.00;43.00;;;25.01;36.77;97518.56;5031343;28;20037;-56
2023/06/29 08:43:42;;;;;;;9.35;3.33;;;24.10;42.80;;;25.10;36.45;97522.47;5029559;28;20048;-55
2023/06/29 08:46:09;;;;;;;5.05;3.25;;;24.20;42.70;;;25.22;36.48;97519.56;5024339;28;20505;-55
2023/06/29 08:48:39;;;;;;;3.80;2.75;;;24.30;42.70;;;25.29;36.10;97515.59;5021969;28;20053;-55
2023/06/29 08:51:10;;;;;;;3.60;2.97;;;24.40;41.60;;;25.39;36.26;97511.31;5008311;28;20054;-52
2023/06/29 08:53:41;;;;;;;4.45;3.22;;;24.50;42.20;;;25.48;36.05;97507.03;5025877;28;20049;-56
2023/06/29 08:56:10;;;;;;;4.78;3.47;;;24.60;41.60;;;25.57;36.15;97505.47;5023203;28;20495;-57
2023/06/29 08:58:39;;;;;;;3.90;3.05;;;24.70;41.80;;;25.65;35.79;97499.53;5022088;28;20041;-55
2023/06/29 09:01:07;;;;;;;5.72;3.53;;;24.80;41.40;;;25.76;35.62;97494.13;5026199;28;20041;-57
2023/06/29 09:03:39;;;;;;;5.07;3.50;;;24.90;41.10;;;25.84;35.31;97496.34;5025087;28;20420;-54
2023/06/29 09:06:09;;;;;;;5.30;3.28;;;24.90;40.30;;;25.90;35.26;97485.25;5024112;28;20053;-53
2023/06/29 09:08:38;;;;;;;4.32;3.30;;;25.10;40.60;;;26.00;35.26;97495.41;5025420;28;20065;-55
2023/06/29 09:11:06;;;;;;;3.60;3.30;;;25.20;40.70;;;26.07;35.39;97486.97;5024397;28;20416;-54
2023/06/29 09:13:34;;;;;;;5.40;3.67;;;25.20;41.00;;;26.10;35.18;97487.28;5022279;28;20038;-54
2023/06/29 09:16:03;;;;;;;5.20;3.00;;;25.30;40.10;;;26.12;34.89;97485.09;5030698;28;20049;-53
2023/06/29 09:18:32;;;;;;;5.97;3.45;;;25.30;39.80;;;26.17;34.71;97486.19;5029103;28;20045;-55
2023/06/29 09:21:00;;;;;;;6.15;3.50;;;25.30;39.90;;;26.20;34.63;97489.22;5030662;28;20041;-56
2023/06/29 09:23:31;;;;;;;3.75;3.20;;;25.30;39.50;;;26.25;34.35;97491.16;5030774;28;20121;-56
2023/06/29 09:25:58;;;;;;;4.22;3.15;;;25.40;39.40;;;26.33;34.15;97487.94;5030775;28;20045;-55
2023/06/29 09:28:26;;;;;;;5.55;3.65;;;25.40;39.30;;;26.41;34.28;97486.59;5029197;28;20052;-54
2023/06/29 09:30:55;;;;;;;6.30;3.35;;;25.60;39.40;;;26.51;34.60;97483.88;5030555;28;20053;-56
2023/06/29 09:33:25;;;;;;;6.75;3.40;;;25.70;39.10;;;26.61;33.98;97481.22;5030581;28;20112;-56
2023/06/29 09:35:53;;;;;;;6.22;3.50;;;25.80;38.30;;;26.68;33.75;97478.25;5029695;28;20049;-56
2023/06/29 09:38:21;;;;;;;4.22;3.28;;;25.80;38.30;;;26.71;33.92;97481.25;5030173;28;20057;-55
2023/06/29 09:40:52;;;;;;;4.78;3.22;;;25.90;38.50;;;26.81;33.56;97485.06;5030406;28;20034;-56
2023/06/29 09:43:28;;;;;;;5.18;3.42;;;26.00;38.30;;;26.88;32.99;97491.09;5029503;28;20086;-56
2023/06/29 09:46:02;;;;;;;4.25;3.78;;;26.00;37.70;;;26.89;32.92;97484.56;5029155;28;20052;-55
2023/06/29 09:48:31;;;;;;;3.50;3.20;;;26.00;37.30;;;26.93;33.45;97485.66;5027014;28;22222;-55
2023/06/29 09:51:01;;;;;;;6.22;3.42;;;26.10;38.00;;;26.99;33.40;97483.75;5028745;28;20045;-55
2023/06/29 09:53:33;;;;;;;4.38;3.75;;;26.10;38.00;;;27.05;32.87;97488.13;5028223;28;20091;-53
2023/06/29 09:56:02;;;;;;;5.88;3.75;;;26.20;37.50;;;27.09;32.46;97479.13;5024297;28;20046;-52
2023/06/29 09:58:30;;;;;;;5.70;3.72;;;26.20;37.10;;;27.14;32.72;97477.47;5030069;28;20056;-56
2023/06/29 10:01:00;;;;;;;4.57;3.13;;;26.20;37.10;;;27.17;32.39;97475.03;5030333;28;20041;-53
2023/06/29 10:03:31;;;;;;;4.80;3.38;;;26.30;37.30;;;27.24;32.24;97469.31;5029123;28;20481;-54
2023/06/29 10:06:10;;;;;;;3.92;3.45;;;26.40;37.10;;;27.30;32.33;97474.50;5030138;28;20041;-55
2023/06/29 10:08:42;;;;;;;5.53;3.60;;;26.40;36.60;;;27.40;32.37;97470.94;5021696;28;20041;-56
2023/06/29 10:11:09;;;;;;;3.90;2.97;;;26.60;36.50;;;27.52;31.69;97469.84;5031367;28;20049;-53
2023/06/29 10:13:45;;;;;;;4.57;3.03;;;26.70;36.00;;;27.59;31.49;97470.41;5034117;28;20041;-54
2023/06/29 10:16:19;;;;;;;3.05;2.78;;;26.80;34.80;;;27.67;31.07;97467.09;5032695;28;20045;-58
2023/06/29 10:18:50;;;;;;;4.78;2.58;;;26.90;34.70;;;27.74;31.19;97458.59;5032045;28;20049;-56
2023/06/29 10:21:18;;;;;;;3.90;2.80;;;26.90;34.60;;;27.81;31.33;97459.94;5032738;28;20052;-58
2023/06/29 10:23:47;;;;;;;3.40;2.70;;;27.00;35.20;;;27.89;30.25;97458.59;5032627;28;20432;-56
2023/06/29 10:26:15;;;;;;;5.20;3.10;;;27.10;34.30;;;27.99;30.73;97460.47;5026378;28;20521;-58